PWSweather.com
Personal Weather Stations
Station Observations
PICKERING
North Yorkshire, PickeringGB

North YorkshirePickeringGB

Lat: 54.2494, Lon: -0.7725

Elevation: 192

Station Type: Oregon Scientific WMR100

http://www.yorkshirewalker.co.uk/weather/

High Low Average
Temperature 39.9°F4.4°C 29.1°F-1.6°C 33.8°F1.0°C
Dew Point 30.2°F-1.0°C 19.4°F-7.0°C 24.9°F-3.9°C
Winds 14.1 mph 22.7 kmh Calm Calm 6.0 mph WNW9.7 kmh WNW
Wind Gusts 22.4 mph36.0 kmh -- 9.0 mph14.5 kmh
Humidity 78% 61% 70%
Pressure 29.83 in1010.2 mb 29.27 in991.2 mb -
Precipitation 0.00 in0.0 mm - -
Hour Temp Dew Point Humidity Winds Wind Gusts Pressure Precip Precip Rate Daily Precip Total
12:00 AM 32.9°F0.5°C 26.6°F-3.0°C 78% 2.7 mph WSW4.3 kmh WSW 4.0 mph6.4 kmh 29.27 in991.2 mb 0.00 in0.0 mm 0.00 in0.0 mm 0.00 in0.0 mm
12:05 AM 32.5°F0.3°C 26.6°F-3.0°C 78% 2.6 mph SW4.2 kmh SW 4.0 mph6.4 kmh 29.27 in991.2 mb 0.00 in0.0 mm 0.00 in0.0 mm 0.00 in0.0 mm
12:10 AM 32.4°F0.2°C 26.6°F-3.0°C 78% 1.9 mph WSW3.1 kmh WSW 3.6 mph5.8 kmh 29.27 in991.2 mb 0.00 in0.0 mm 0.00 in0.0 mm 0.00 in0.0 mm
12:15 AM 32.0°F0.0°C 24.8°F-4.0°C 78% 1.4 mph W2.3 kmh W 3.6 mph5.8 kmh 29.27 in991.2 mb 0.00 in0.0 mm 0.00 in0.0 mm 0.00 in0.0 mm
12:20 AM 31.6°F-0.2°C 24.8°F-4.0°C 78% 1.9 mph WSW3.1 kmh WSW 3.4 mph5.5 kmh 29.27 in991.2 mb 0.00 in0.0 mm 0.00 in0.0 mm 0.00 in0.0 mm
12:25 AM 32.0°F0.0°C 24.8°F-4.0°C 78% 2.4 mph WSW3.9 kmh WSW 3.4 mph5.5 kmh 29.27 in991.2 mb 0.00 in0.0 mm 0.00 in0.0 mm 0.00 in0.0 mm
12:30 AM 32.2°F0.1°C 26.6°F-3.0°C 78% 2.3 mph WSW3.7 kmh WSW 3.8 mph6.1 kmh 29.27 in991.2 mb 0.00 in0.0 mm 0.00 in0.0 mm 0.00 in0.0 mm
12:35 AM 32.2°F0.1°C 26.6°F-3.0°C 78% 2.1 mph W3.4 kmh W 3.8 mph6.1 kmh 29.27 in991.2 mb 0.00 in0.0 mm 0.00 in0.0 mm 0.00 in0.0 mm
12:40 AM 32.5°F0.3°C 26.6°F-3.0°C 78% 2.2 mph W3.5 kmh W 3.6 mph5.8 kmh 29.27 in991.2 mb 0.00 in0.0 mm 0.00 in0.0 mm 0.00 in0.0 mm
12:45 AM 32.7°F0.4°C 26.6°F-3.0°C 78% 2.4 mph W3.9 kmh W 4.9 mph7.9 kmh 29.27 in991.2 mb 0.00 in0.0 mm 0.00 in0.0 mm 0.00 in0.0 mm
12:50 AM 33.1°F0.6°C 26.6°F-3.0°C 78% 3.4 mph W5.5 kmh W 4.9 mph7.9 kmh 29.27 in991.2 mb 0.00 in0.0 mm 0.00 in0.0 mm 0.00 in0.0 mm
12:55 AM 33.4°F0.8°C 28.4°F-2.0°C 78% 3.8 mph WSW6.1 kmh WSW 4.9 mph7.9 kmh 29.27 in991.2 mb 0.00 in0.0 mm 0.00 in0.0 mm 0.00 in0.0 mm
01:00 AM 33.8°F1.0°C 28.4°F-2.0°C 78% 3.6 mph W5.8 kmh W 5.4 mph8.7 kmh 29.27 in991.2 mb 0.00 in0.0 mm 0.00 in0.0 mm 0.00 in0.0 mm
01:05 AM 34.2°F1.2°C 28.4°F-2.0°C 77% 4.3 mph W6.9 kmh W 5.6 mph9.0 kmh 29.27 in991.2 mb 0.00 in0.0 mm 0.00 in0.0 mm 0.00 in0.0 mm
01:10 AM 34.5°F1.4°C 28.4°F-2.0°C 77% 4.0 mph W6.4 kmh W 5.6 mph9.0 kmh 29.30 in992.2 mb 0.00 in0.0 mm 0.00 in0.0 mm 0.00 in0.0 mm
01:15 AM 34.5°F1.4°C 28.4°F-2.0°C 77% 3.1 mph WNW5.0 kmh WNW 4.0 mph6.4 kmh 29.30 in992.2 mb 0.00 in0.0 mm 0.00 in0.0 mm 0.00 in0.0 mm
01:20 AM 34.9°F1.6°C 28.4°F-2.0°C 77% 3.3 mph WNW5.3 kmh WNW 5.8 mph9.3 kmh 29.30 in992.2 mb 0.00 in0.0 mm 0.00 in0.0 mm 0.00 in0.0 mm
01:25 AM 35.1°F1.7°C 28.4°F-2.0°C 77% 3.7 mph NW6.0 kmh NW 6.9 mph11.1 kmh 29.30 in992.2 mb 0.00 in0.0 mm 0.00 in0.0 mm 0.00 in0.0 mm
01:30 AM 35.4°F1.9°C 30.2°F-1.0°C 77% 4.3 mph NW6.9 kmh NW 7.4 mph11.9 kmh 29.30 in992.2 mb 0.00 in0.0 mm 0.00 in0.0 mm 0.00 in0.0 mm
01:35 AM 35.8°F2.1°C 30.2°F-1.0°C 77% 4.1 mph NW6.6 kmh NW 7.4 mph11.9 kmh 29.30 in992.2 mb 0.00 in0.0 mm 0.00 in0.0 mm 0.00 in0.0 mm
01:40 AM 36.0°F2.2°C 30.2°F-1.0°C 77% 4.1 mph NW6.6 kmh NW 6.5 mph10.5 kmh 29.30 in992.2 mb 0.00 in0.0 mm 0.00 in0.0 mm 0.00 in0.0 mm
01:45 AM 36.1°F2.3°C 30.2°F-1.0°C 77% 5.0 mph NW8.0 kmh NW 8.7 mph14.0 kmh 29.30 in992.2 mb 0.00 in0.0 mm 0.00 in0.0 mm 0.00 in0.0 mm
01:50 AM 36.1°F2.3°C 30.2°F-1.0°C 77% 5.5 mph NW8.9 kmh NW 10.1 mph16.3 kmh 29.30 in992.2 mb 0.00 in0.0 mm 0.00 in0.0 mm 0.00 in0.0 mm
01:55 AM 36.1°F2.3°C 30.2°F-1.0°C 77% 5.0 mph NW8.0 kmh NW 10.1 mph16.3 kmh 29.33 in993.2 mb 0.00 in0.0 mm 0.00 in0.0 mm 0.00 in0.0 mm
02:00 AM 36.1°F2.3°C 30.2°F-1.0°C 77% 5.7 mph NW9.2 kmh NW 8.1 mph13.0 kmh 29.33 in993.2 mb 0.00 in0.0 mm 0.00 in0.0 mm 0.00 in0.0 mm
02:05 AM 36.0°F2.2°C 30.2°F-1.0°C 78% 6.4 mph NW10.3 kmh NW 9.8 mph15.8 kmh 29.33 in993.2 mb 0.00 in0.0 mm 0.00 in0.0 mm 0.00 in0.0 mm
02:10 AM 35.6°F2.0°C 30.2°F-1.0°C 77% 7.4 mph NW11.9 kmh NW 13.0 mph20.9 kmh 29.33 in993.2 mb 0.00 in0.0 mm 0.00 in0.0 mm 0.00 in0.0 mm
02:15 AM 35.2°F1.8°C 28.4°F-2.0°C 78% 9.1 mph NW14.6 kmh NW 13.2 mph21.2 kmh 29.33 in993.2 mb 0.00 in0.0 mm 0.00 in0.0 mm 0.00 in0.0 mm
02:20 AM 35.4°F1.9°C 30.2°F-1.0°C 78% 8.3 mph NW13.4 kmh NW 13.2 mph21.2 kmh 29.33 in993.2 mb 0.00 in0.0 mm 0.00 in0.0 mm 0.00 in0.0 mm
02:25 AM 35.4°F1.9°C 30.2°F-1.0°C 78% 6.9 mph NNW11.1 kmh NNW 13.9 mph22.4 kmh 29.33 in993.2 mb 0.00 in0.0 mm 0.00 in0.0 mm 0.00 in0.0 mm
02:30 AM 35.4°F1.9°C 30.2°F-1.0°C 78% 6.3 mph NW10.1 kmh NW 13.9 mph22.4 kmh 29.33 in993.2 mb 0.00 in0.0 mm 0.00 in0.0 mm 0.00 in0.0 mm
02:35 AM 35.4°F1.9°C 30.2°F-1.0°C 78% 7.1 mph NW11.4 kmh NW 10.7 mph17.2 kmh 29.33 in993.2 mb 0.00 in0.0 mm 0.00 in0.0 mm 0.00 in0.0 mm
02:40 AM 35.4°F1.9°C 30.2°F-1.0°C 78% 6.5 mph NW10.5 kmh NW 10.7 mph17.2 kmh 29.33 in993.2 mb 0.00 in0.0 mm 0.00 in0.0 mm 0.00 in0.0 mm
02:45 AM 35.2°F1.8°C 28.4°F-2.0°C 78% 5.8 mph NW9.3 kmh NW 10.7 mph17.2 kmh 29.33 in993.2 mb 0.00 in0.0 mm 0.00 in0.0 mm 0.00 in0.0 mm
02:50 AM 35.2°F1.8°C 28.4°F-2.0°C 78% 6.1 mph NW9.8 kmh NW 9.8 mph15.8 kmh 29.33 in993.2 mb 0.00 in0.0 mm 0.00 in0.0 mm 0.00 in0.0 mm
02:55 AM 34.9°F1.6°C 28.4°F-2.0°C 78% 5.9 mph NW9.5 kmh NW 9.8 mph15.8 kmh 29.36 in994.2 mb 0.00 in0.0 mm 0.00 in0.0 mm 0.00 in0.0 mm
03:00 AM 34.7°F1.5°C 28.4°F-2.0°C 78% 7.1 mph NW11.4 kmh NW 10.3 mph16.6 kmh 29.36 in994.2 mb 0.00 in0.0 mm 0.00 in0.0 mm 0.00 in0.0 mm
03:05 AM 34.7°F1.5°C 28.4°F-2.0°C 78% 6.9 mph NW11.1 kmh NW 10.3 mph16.6 kmh 29.36 in994.2 mb 0.00 in0.0 mm 0.00 in0.0 mm 0.00 in0.0 mm
03:10 AM 34.7°F1.5°C 28.4°F-2.0°C 78% 5.4 mph NW8.7 kmh NW 7.6 mph12.2 kmh 29.36 in994.2 mb 0.00 in0.0 mm 0.00 in0.0 mm 0.00 in0.0 mm
03:15 AM 34.7°F1.5°C 28.4°F-2.0°C 78% 5.4 mph NW8.7 kmh NW 7.8 mph12.6 kmh 29.36 in994.2 mb 0.00 in0.0 mm 0.00 in0.0 mm 0.00 in0.0 mm
03:20 AM 34.7°F1.5°C 28.4°F-2.0°C 78% 6.7 mph NNW10.8 kmh NNW 10.7 mph17.2 kmh 29.36 in994.2 mb 0.00 in0.0 mm 0.00 in0.0 mm 0.00 in0.0 mm
03:25 AM 34.7°F1.5°C 28.4°F-2.0°C 78% 8.4 mph NW13.5 kmh NW 17.2 mph27.7 kmh 29.36 in994.2 mb 0.00 in0.0 mm 0.00 in0.0 mm 0.00 in0.0 mm
03:30 AM 34.5°F1.4°C 28.4°F-2.0°C 77% 8.9 mph NW14.3 kmh NW 17.2 mph27.7 kmh 29.36 in994.2 mb 0.00 in0.0 mm 0.00 in0.0 mm 0.00 in0.0 mm
03:35 AM 34.3°F1.3°C 28.4°F-2.0°C 77% 7.4 mph NW11.9 kmh NW 13.2 mph21.2 kmh 29.36 in994.2 mb 0.00 in0.0 mm 0.00 in0.0 mm 0.00 in0.0 mm
03:40 AM 34.3°F1.3°C 28.4°F-2.0°C 77% 7.7 mph NW12.4 kmh NW 12.5 mph20.1 kmh 29.36 in994.2 mb 0.00 in0.0 mm 0.00 in0.0 mm 0.00 in0.0 mm
03:45 AM 34.3°F1.3°C 28.4°F-2.0°C 76% 8.8 mph NW14.2 kmh NW 13.2 mph21.2 kmh 29.36 in994.2 mb 0.00 in0.0 mm 0.00 in0.0 mm 0.00 in0.0 mm
03:50 AM 34.3°F1.3°C 28.4°F-2.0°C 75% 10.2 mph NW16.4 kmh NW 16.6 mph26.7 kmh 29.36 in994.2 mb 0.00 in0.0 mm 0.00 in0.0 mm 0.00 in0.0 mm
03:55 AM 34.3°F1.3°C 26.6°F-3.0°C 74% 11.6 mph NW18.7 kmh NW 16.6 mph26.7 kmh 29.36 in994.2 mb 0.00 in0.0 mm 0.00 in0.0 mm 0.00 in0.0 mm
04:00 AM 34.2°F1.2°C 26.6°F-3.0°C 74% 9.9 mph NW15.9 kmh NW 13.9 mph22.4 kmh 29.36 in994.2 mb 0.00 in0.0 mm 0.00 in0.0 mm 0.00 in0.0 mm
04:05 AM 34.2°F1.2°C 26.6°F-3.0°C 73% 8.7 mph NW14.0 kmh NW 12.8 mph20.6 kmh 29.36 in994.2 mb 0.00 in0.0 mm 0.00 in0.0 mm 0.00 in0.0 mm
04:10 AM 34.3°F1.3°C 26.6°F-3.0°C 73% 8.5 mph NW13.7 kmh NW 12.8 mph20.6 kmh 29.36 in994.2 mb 0.00 in0.0 mm 0.00 in0.0 mm 0.00 in0.0 mm
04:15 AM 34.2°F1.2°C 26.6°F-3.0°C 72% 8.8 mph NW14.2 kmh NW 14.8 mph23.8 kmh 29.36 in994.2 mb 0.00 in0.0 mm 0.00 in0.0 mm 0.00 in0.0 mm
04:20 AM 33.8°F1.0°C 26.6°F-3.0°C 71% 9.4 mph NW15.1 kmh NW 14.8 mph23.8 kmh 29.36 in994.2 mb 0.00 in0.0 mm 0.00 in0.0 mm 0.00 in0.0 mm
04:25 AM 33.6°F0.9°C 24.8°F-4.0°C 70% 8.4 mph WNW13.5 kmh WNW 12.5 mph20.1 kmh 29.39 in995.3 mb 0.00 in0.0 mm 0.00 in0.0 mm 0.00 in0.0 mm
04:30 AM 33.6°F0.9°C 24.8°F-4.0°C 69% 7.9 mph WNW12.7 kmh WNW 11.0 mph17.7 kmh 29.39 in995.3 mb 0.00 in0.0 mm 0.00 in0.0 mm 0.00 in0.0 mm
04:35 AM 33.3°F0.7°C 24.8°F-4.0°C 69% 7.6 mph W12.2 kmh W 11.0 mph17.7 kmh 29.39 in995.3 mb 0.00 in0.0 mm 0.00 in0.0 mm 0.00 in0.0 mm
04:40 AM 33.3°F0.7°C 24.8°F-4.0°C 69% 7.6 mph NW12.2 kmh NW 12.1 mph19.5 kmh 29.39 in995.3 mb 0.00 in0.0 mm 0.00 in0.0 mm 0.00 in0.0 mm
04:45 AM 33.1°F0.6°C 24.8°F-4.0°C 69% 8.7 mph NW14.0 kmh NW 12.1 mph19.5 kmh 29.39 in995.3 mb 0.00 in0.0 mm 0.00 in0.0 mm 0.00 in0.0 mm
04:50 AM 32.9°F0.5°C 24.8°F-4.0°C 68% 7.5 mph NW12.1 kmh NW 12.1 mph19.5 kmh 29.39 in995.3 mb 0.00 in0.0 mm 0.00 in0.0 mm 0.00 in0.0 mm
04:55 AM 32.9°F0.5°C 24.8°F-4.0°C 68% 7.7 mph NW12.4 kmh NW 12.8 mph20.6 kmh 29.39 in995.3 mb 0.00 in0.0 mm 0.00 in0.0 mm 0.00 in0.0 mm
05:00 AM 32.9°F0.5°C 23.0°F-5.0°C 67% 9.6 mph NW15.4 kmh NW 12.8 mph20.6 kmh 29.39 in995.3 mb 0.00 in0.0 mm 0.00 in0.0 mm 0.00 in0.0 mm
05:05 AM 32.5°F0.3°C 23.0°F-5.0°C 67% 9.0 mph NW14.5 kmh NW 13.4 mph21.6 kmh 29.39 in995.3 mb 0.00 in0.0 mm 0.00 in0.0 mm 0.00 in0.0 mm
05:10 AM 32.5°F0.3°C 23.0°F-5.0°C 67% 7.7 mph NW12.4 kmh NW 13.4 mph21.6 kmh 29.41 in995.9 mb 0.00 in0.0 mm 0.00 in0.0 mm 0.00 in0.0 mm
05:15 AM 32.4°F0.2°C 23.0°F-5.0°C 67% 6.8 mph NW10.9 kmh NW 12.3 mph19.8 kmh 29.41 in995.9 mb 0.00 in0.0 mm 0.00 in0.0 mm 0.00 in0.0 mm
05:20 AM 32.2°F0.1°C 23.0°F-5.0°C 67% 6.3 mph NW10.1 kmh NW 12.3 mph19.8 kmh 29.41 in995.9 mb 0.00 in0.0 mm 0.00 in0.0 mm 0.00 in0.0 mm
05:25 AM 32.0°F0.0°C 21.2°F-6.0°C 66% 6.9 mph NW11.1 kmh NW 11.9 mph19.2 kmh 29.41 in995.9 mb 0.00 in0.0 mm 0.00 in0.0 mm 0.00 in0.0 mm
05:30 AM 32.0°F0.0°C 21.2°F-6.0°C 66% 6.8 mph NW10.9 kmh NW 11.9 mph19.2 kmh 29.41 in995.9 mb 0.00 in0.0 mm 0.00 in0.0 mm 0.00 in0.0 mm
05:35 AM 31.8°F-0.1°C 21.2°F-6.0°C 66% 4.6 mph WNW7.4 kmh WNW 7.8 mph12.6 kmh 29.41 in995.9 mb 0.00 in0.0 mm 0.00 in0.0 mm 0.00 in0.0 mm
05:40 AM 31.8°F-0.1°C 21.2°F-6.0°C 66% 4.9 mph NW7.9 kmh NW 8.7 mph14.0 kmh 29.41 in995.9 mb 0.00 in0.0 mm 0.00 in0.0 mm 0.00 in0.0 mm
05:45 AM 31.8°F-0.1°C 21.2°F-6.0°C 66% 6.3 mph NW10.1 kmh NW 8.7 mph14.0 kmh 29.41 in995.9 mb 0.00 in0.0 mm 0.00 in0.0 mm 0.00 in0.0 mm
05:50 AM 31.5°F-0.3°C 21.2°F-6.0°C 67% 6.0 mph NW9.7 kmh NW 8.5 mph13.7 kmh 29.41 in995.9 mb 0.00 in0.0 mm 0.00 in0.0 mm 0.00 in0.0 mm
05:55 AM 31.5°F-0.3°C 21.2°F-6.0°C 67% 5.6 mph W9.0 kmh W 11.4 mph18.3 kmh 29.45 in997.3 mb 0.00 in0.0 mm 0.00 in0.0 mm 0.00 in0.0 mm
06:00 AM 31.5°F-0.3°C 21.2°F-6.0°C 67% 5.4 mph W8.7 kmh W 11.4 mph18.3 kmh 29.45 in997.3 mb 0.00 in0.0 mm 0.00 in0.0 mm 0.00 in0.0 mm
06:05 AM 31.3°F-0.4°C 21.2°F-6.0°C 67% 5.6 mph NW9.0 kmh NW 7.8 mph12.6 kmh 29.45 in997.3 mb 0.00 in0.0 mm 0.00 in0.0 mm 0.00 in0.0 mm
06:10 AM 31.3°F-0.4°C 21.2°F-6.0°C 67% 5.8 mph NW9.3 kmh NW 7.8 mph12.6 kmh 29.45 in997.3 mb 0.00 in0.0 mm 0.00 in0.0 mm 0.00 in0.0 mm
06:15 AM 31.3°F-0.4°C 21.2°F-6.0°C 67% 5.5 mph NW8.9 kmh NW 7.6 mph12.2 kmh 29.45 in997.3 mb 0.00 in0.0 mm 0.00 in0.0 mm 0.00 in0.0 mm
06:20 AM 31.1°F-0.5°C 19.4°F-7.0°C 67% 5.2 mph W8.4 kmh W 7.2 mph11.6 kmh 29.45 in997.3 mb 0.00 in0.0 mm 0.00 in0.0 mm 0.00 in0.0 mm
06:25 AM 30.9°F-0.6°C 19.4°F-7.0°C 67% 4.5 mph WNW7.2 kmh WNW 6.0 mph9.7 kmh 29.45 in997.3 mb 0.00 in0.0 mm 0.00 in0.0 mm 0.00 in0.0 mm
06:30 AM 30.9°F-0.6°C 19.4°F-7.0°C 66% 4.6 mph NW7.4 kmh NW 7.8 mph12.6 kmh 29.45 in997.3 mb 0.00 in0.0 mm 0.00 in0.0 mm 0.00 in0.0 mm
06:35 AM 30.9°F-0.6°C 19.4°F-7.0°C 66% 5.5 mph NW8.9 kmh NW 8.1 mph13.0 kmh 29.45 in997.3 mb 0.00 in0.0 mm 0.00 in0.0 mm 0.00 in0.0 mm
06:40 AM 30.9°F-0.6°C 19.4°F-7.0°C 66% 6.7 mph NW10.8 kmh NW 8.5 mph13.7 kmh 29.45 in997.3 mb 0.00 in0.0 mm 0.00 in0.0 mm 0.00 in0.0 mm
06:45 AM 30.9°F-0.6°C 19.4°F-7.0°C 66% 6.5 mph NW10.5 kmh NW 10.3 mph16.6 kmh 29.45 in997.3 mb 0.00 in0.0 mm 0.00 in0.0 mm 0.00 in0.0 mm
06:50 AM 31.1°F-0.5°C 19.4°F-7.0°C 65% 6.5 mph NW10.5 kmh NW 10.7 mph17.2 kmh 29.45 in997.3 mb 0.00 in0.0 mm 0.00 in0.0 mm 0.00 in0.0 mm
06:55 AM 31.1°F-0.5°C 19.4°F-7.0°C 65% 8.3 mph NW13.4 kmh NW 13.0 mph20.9 kmh 29.45 in997.3 mb 0.00 in0.0 mm 0.00 in0.0 mm 0.00 in0.0 mm
07:00 AM 31.1°F-0.5°C 19.4°F-7.0°C 65% 8.3 mph NW13.4 kmh NW 13.0 mph20.9 kmh 29.45 in997.3 mb 0.00 in0.0 mm 0.00 in0.0 mm 0.00 in0.0 mm
07:05 AM 31.3°F-0.4°C 19.4°F-7.0°C 65% 8.3 mph NW13.4 kmh NW 13.2 mph21.2 kmh 29.45 in997.3 mb 0.00 in0.0 mm 0.00 in0.0 mm 0.00 in0.0 mm
07:10 AM 31.3°F-0.4°C 19.4°F-7.0°C 65% 8.6 mph NW13.8 kmh NW 13.2 mph21.2 kmh 29.45 in997.3 mb 0.00 in0.0 mm 0.00 in0.0 mm 0.00 in0.0 mm
07:15 AM 31.5°F-0.3°C 19.4°F-7.0°C 64% 8.9 mph NW14.3 kmh NW 12.5 mph20.1 kmh 29.45 in997.3 mb 0.00 in0.0 mm 0.00 in0.0 mm 0.00 in0.0 mm
07:20 AM 31.3°F-0.4°C 19.4°F-7.0°C 64% 8.1 mph NW13.0 kmh NW 12.3 mph19.8 kmh 29.45 in997.3 mb 0.00 in0.0 mm 0.00 in0.0 mm 0.00 in0.0 mm
07:25 AM 31.3°F-0.4°C 19.4°F-7.0°C 64% 7.8 mph NW12.6 kmh NW 10.7 mph17.2 kmh 29.45 in997.3 mb 0.00 in0.0 mm 0.00 in0.0 mm 0.00 in0.0 mm
07:30 AM 31.3°F-0.4°C 19.4°F-7.0°C 64% 7.4 mph WNW11.9 kmh WNW 10.7 mph17.2 kmh 29.45 in997.3 mb 0.00 in0.0 mm 0.00 in0.0 mm 0.00 in0.0 mm
07:35 AM 31.1°F-0.5°C 19.4°F-7.0°C 64% 6.5 mph WNW10.5 kmh WNW 11.2 mph18.0 kmh 29.45 in997.3 mb 0.00 in0.0 mm 0.00 in0.0 mm 0.00 in0.0 mm
07:40 AM 31.3°F-0.4°C 19.4°F-7.0°C 64% 6.8 mph WNW10.9 kmh WNW 11.2 mph18.0 kmh 29.47 in998.0 mb 0.00 in0.0 mm 0.00 in0.0 mm 0.00 in0.0 mm
07:45 AM 31.3°F-0.4°C 19.4°F-7.0°C 64% 7.3 mph WNW11.7 kmh WNW 12.8 mph20.6 kmh 29.47 in998.0 mb 0.00 in0.0 mm 0.00 in0.0 mm 0.00 in0.0 mm
07:50 AM 31.1°F-0.5°C 19.4°F-7.0°C 64% 6.8 mph WNW10.9 kmh WNW 12.8 mph20.6 kmh 29.47 in998.0 mb 0.00 in0.0 mm 0.00 in0.0 mm 0.00 in0.0 mm
07:55 AM 31.3°F-0.4°C 19.4°F-7.0°C 64% 6.9 mph NW11.1 kmh NW 10.7 mph17.2 kmh 29.47 in998.0 mb 0.00 in0.0 mm 0.00 in0.0 mm 0.00 in0.0 mm
08:00 AM 31.5°F-0.3°C 19.4°F-7.0°C 64% 6.6 mph NW10.6 kmh NW 10.7 mph17.2 kmh 29.47 in998.0 mb 0.00 in0.0 mm 0.00 in0.0 mm 0.00 in0.0 mm
08:05 AM 31.5°F-0.3°C 19.4°F-7.0°C 64% 7.5 mph NW12.1 kmh NW 13.2 mph21.2 kmh 29.47 in998.0 mb 0.00 in0.0 mm 0.00 in0.0 mm 0.00 in0.0 mm
08:10 AM 31.5°F-0.3°C 19.4°F-7.0°C 64% 9.3 mph NNW15.0 kmh NNW 13.2 mph21.2 kmh 29.47 in998.0 mb 0.00 in0.0 mm 0.00 in0.0 mm 0.00 in0.0 mm
08:15 AM 31.6°F-0.2°C 19.4°F-7.0°C 64% 9.5 mph NW15.3 kmh NW 13.2 mph21.2 kmh 29.47 in998.0 mb 0.00 in0.0 mm 0.00 in0.0 mm 0.00 in0.0 mm
08:20 AM 31.6°F-0.2°C 19.4°F-7.0°C 64% 7.8 mph NW12.6 kmh NW 11.0 mph17.7 kmh 29.47 in998.0 mb 0.00 in0.0 mm 0.00 in0.0 mm 0.00 in0.0 mm
08:25 AM 31.6°F-0.2°C 19.4°F-7.0°C 64% 7.5 mph W12.1 kmh W 12.8 mph20.6 kmh 29.50 in999.0 mb 0.00 in0.0 mm 0.00 in0.0 mm 0.00 in0.0 mm
08:30 AM 31.8°F-0.1°C 19.4°F-7.0°C 63% 8.2 mph NW13.2 kmh NW 12.8 mph20.6 kmh 29.50 in999.0 mb 0.00 in0.0 mm 0.00 in0.0 mm 0.00 in0.0 mm
08:35 AM 31.8°F-0.1°C 19.4°F-7.0°C 63% 7.5 mph NW12.1 kmh NW 11.2 mph18.0 kmh 29.50 in999.0 mb 0.00 in0.0 mm 0.00 in0.0 mm 0.00 in0.0 mm
08:40 AM 31.8°F-0.1°C 19.4°F-7.0°C 63% 7.7 mph NW12.4 kmh NW 13.2 mph21.2 kmh 29.50 in999.0 mb 0.00 in0.0 mm 0.00 in0.0 mm 0.00 in0.0 mm
08:45 AM 32.0°F0.0°C 19.4°F-7.0°C 63% 7.1 mph WNW11.4 kmh WNW 13.2 mph21.2 kmh 29.50 in999.0 mb 0.00 in0.0 mm 0.00 in0.0 mm 0.00 in0.0 mm
08:50 AM 32.0°F0.0°C 19.4°F-7.0°C 63% 6.2 mph WNW10.0 kmh WNW 8.7 mph14.0 kmh 29.50 in999.0 mb 0.00 in0.0 mm 0.00 in0.0 mm 0.00 in0.0 mm
08:55 AM 32.4°F0.2°C 21.2°F-6.0°C 63% 7.8 mph WNW12.6 kmh WNW 12.3 mph19.8 kmh 29.50 in999.0 mb 0.00 in0.0 mm 0.00 in0.0 mm 0.00 in0.0 mm
09:00 AM 32.5°F0.3°C 21.2°F-6.0°C 63% 7.8 mph NW12.6 kmh NW 12.3 mph19.8 kmh 29.50 in999.0 mb 0.00 in0.0 mm 0.00 in0.0 mm 0.00 in0.0 mm
09:05 AM 32.5°F0.3°C 21.2°F-6.0°C 63% 7.8 mph NW12.6 kmh NW 12.8 mph20.6 kmh 29.50 in999.0 mb 0.00 in0.0 mm 0.00 in0.0 mm 0.00 in0.0 mm
09:10 AM 32.9°F0.5°C 21.2°F-6.0°C 62% 9.0 mph NW14.5 kmh NW 13.2 mph21.2 kmh 29.50 in999.0 mb 0.00 in0.0 mm 0.00 in0.0 mm 0.00 in0.0 mm
09:15 AM 32.9°F0.5°C 21.2°F-6.0°C 62% 10.4 mph NW16.7 kmh NW 16.1 mph25.9 kmh 29.50 in999.0 mb 0.00 in0.0 mm 0.00 in0.0 mm 0.00 in0.0 mm
09:20 AM 33.1°F0.6°C 21.2°F-6.0°C 62% 10.3 mph NW16.6 kmh NW 16.1 mph25.9 kmh 29.50 in999.0 mb 0.00 in0.0 mm 0.00 in0.0 mm 0.00 in0.0 mm
09:25 AM 33.3°F0.7°C 21.2°F-6.0°C 62% 9.0 mph NW14.5 kmh NW 12.8 mph20.6 kmh 29.50 in999.0 mb 0.00 in0.0 mm 0.00 in0.0 mm 0.00 in0.0 mm
09:30 AM 33.6°F0.9°C 23.0°F-5.0°C 62% 10.7 mph NNW17.2 kmh NNW 19.7 mph31.7 kmh 29.50 in999.0 mb 0.00 in0.0 mm 0.00 in0.0 mm 0.00 in0.0 mm
09:35 AM 33.6°F0.9°C 21.2°F-6.0°C 61% 10.6 mph NW17.1 kmh NW 19.7 mph31.7 kmh 29.50 in999.0 mb 0.00 in0.0 mm 0.00 in0.0 mm 0.00 in0.0 mm
09:40 AM 33.8°F1.0°C 21.2°F-6.0°C 61% 7.9 mph NW12.7 kmh NW 12.5 mph20.1 kmh 29.53 in1000.0 mb 0.00 in0.0 mm 0.00 in0.0 mm 0.00 in0.0 mm
09:45 AM 34.2°F1.2°C 23.0°F-5.0°C 61% 8.6 mph NW13.8 kmh NW 15.4 mph24.8 kmh 29.53 in1000.0 mb 0.00 in0.0 mm 0.00 in0.0 mm 0.00 in0.0 mm
09:50 AM 34.2°F1.2°C 23.0°F-5.0°C 61% 10.6 mph NW17.1 kmh NW 17.0 mph27.4 kmh 29.53 in1000.0 mb 0.00 in0.0 mm 0.00 in0.0 mm 0.00 in0.0 mm
09:55 AM 34.2°F1.2°C 23.0°F-5.0°C 61% 11.6 mph NW18.7 kmh NW 17.0 mph27.4 kmh 29.53 in1000.0 mb 0.00 in0.0 mm 0.00 in0.0 mm 0.00 in0.0 mm
10:00 AM 34.2°F1.2°C 23.0°F-5.0°C 61% 11.2 mph NW18.0 kmh NW 17.9 mph28.8 kmh 29.53 in1000.0 mb 0.00 in0.0 mm 0.00 in0.0 mm 0.00 in0.0 mm
10:05 AM 34.2°F1.2°C 23.0°F-5.0°C 61% 11.3 mph NW18.2 kmh NW 17.9 mph28.8 kmh 29.53 in1000.0 mb 0.00 in0.0 mm 0.00 in0.0 mm 0.00 in0.0 mm
10:10 AM 34.9°F1.6°C 23.0°F-5.0°C 61% 14.0 mph NW22.5 kmh NW 19.5 mph31.4 kmh 29.53 in1000.0 mb 0.00 in0.0 mm 0.00 in0.0 mm 0.00 in0.0 mm
10:15 AM 34.9°F1.6°C 23.0°F-5.0°C 61% 14.1 mph NW22.7 kmh NW 19.5 mph31.4 kmh 29.53 in1000.0 mb 0.00 in0.0 mm 0.00 in0.0 mm 0.00 in0.0 mm
10:20 AM 34.2°F1.2°C 23.0°F-5.0°C 64% 11.9 mph NW19.2 kmh NW 17.7 mph28.5 kmh 29.53 in1000.0 mb 0.00 in0.0 mm 0.00 in0.0 mm 0.00 in0.0 mm
10:25 AM 33.8°F1.0°C 23.0°F-5.0°C 65% 9.1 mph NNW14.6 kmh NNW 12.3 mph19.8 kmh 29.56 in1001.0 mb 0.00 in0.0 mm 0.00 in0.0 mm 0.00 in0.0 mm
10:30 AM 33.8°F1.0°C 23.0°F-5.0°C 65% 7.5 mph NW12.1 kmh NW 10.7 mph17.2 kmh 29.56 in1001.0 mb 0.00 in0.0 mm 0.00 in0.0 mm 0.00 in0.0 mm
10:35 AM 33.8°F1.0°C 23.0°F-5.0°C 66% 7.5 mph NW12.1 kmh NW 12.1 mph19.5 kmh 29.56 in1001.0 mb 0.00 in0.0 mm 0.00 in0.0 mm 0.00 in0.0 mm
10:40 AM 33.6°F0.9°C 24.8°F-4.0°C 67% 7.6 mph NW12.2 kmh NW 13.2 mph21.2 kmh 29.56 in1001.0 mb 0.00 in0.0 mm 0.00 in0.0 mm 0.00 in0.0 mm
10:45 AM 34.3°F1.3°C 24.8°F-4.0°C 67% 8.5 mph NW13.7 kmh NW 13.2 mph21.2 kmh 29.56 in1001.0 mb 0.00 in0.0 mm 0.00 in0.0 mm 0.00 in0.0 mm
10:50 AM 34.3°F1.3°C 24.8°F-4.0°C 67% 10.6 mph NW17.1 kmh NW 15.2 mph24.5 kmh 29.56 in1001.0 mb 0.00 in0.0 mm 0.00 in0.0 mm 0.00 in0.0 mm
10:55 AM 34.0°F1.1°C 24.8°F-4.0°C 68% 9.9 mph NW15.9 kmh NW 15.2 mph24.5 kmh 29.56 in1001.0 mb 0.00 in0.0 mm 0.00 in0.0 mm 0.00 in0.0 mm
11:00 AM 34.2°F1.2°C 24.8°F-4.0°C 68% 9.6 mph NW15.4 kmh NW 18.8 mph30.3 kmh 29.56 in1001.0 mb 0.00 in0.0 mm 0.00 in0.0 mm 0.00 in0.0 mm
11:05 AM 34.5°F1.4°C 24.8°F-4.0°C 68% 11.2 mph NW18.0 kmh NW 22.4 mph36.0 kmh 29.56 in1001.0 mb 0.00 in0.0 mm 0.00 in0.0 mm 0.00 in0.0 mm
11:10 AM 35.1°F1.7°C 26.6°F-3.0°C 68% 10.7 mph NW17.2 kmh NW 22.4 mph36.0 kmh 29.56 in1001.0 mb 0.00 in0.0 mm 0.00 in0.0 mm 0.00 in0.0 mm
11:15 AM 34.3°F1.3°C 24.8°F-4.0°C 69% 9.6 mph NW15.4 kmh NW 15.2 mph24.5 kmh 29.56 in1001.0 mb 0.00 in0.0 mm 0.00 in0.0 mm 0.00 in0.0 mm
11:20 AM 34.7°F1.5°C 26.6°F-3.0°C 69% 9.6 mph NW15.4 kmh NW 17.0 mph27.4 kmh 29.56 in1001.0 mb 0.00 in0.0 mm 0.00 in0.0 mm 0.00 in0.0 mm
11:25 AM 35.6°F2.0°C 26.6°F-3.0°C 68% 9.5 mph NW15.3 kmh NW 17.0 mph27.4 kmh 29.56 in1001.0 mb 0.00 in0.0 mm 0.00 in0.0 mm 0.00 in0.0 mm
11:30 AM 36.0°F2.2°C 26.6°F-3.0°C 69% 10.4 mph NW16.7 kmh NW 17.4 mph28.0 kmh 29.56 in1001.0 mb 0.00 in0.0 mm 0.00 in0.0 mm 0.00 in0.0 mm
11:35 AM 35.1°F1.7°C 26.6°F-3.0°C 69% 12.4 mph NW20.0 kmh NW 17.4 mph28.0 kmh 29.56 in1001.0 mb 0.00 in0.0 mm 0.00 in0.0 mm 0.00 in0.0 mm
11:40 AM 34.9°F1.6°C 26.6°F-3.0°C 71% 11.8 mph NW19.0 kmh NW 16.8 mph27.0 kmh 29.59 in1002.0 mb 0.00 in0.0 mm 0.00 in0.0 mm 0.00 in0.0 mm
11:45 AM 35.8°F2.1°C 28.4°F-2.0°C 71% 9.2 mph NW14.8 kmh NW 15.9 mph25.6 kmh 29.59 in1002.0 mb 0.00 in0.0 mm 0.00 in0.0 mm 0.00 in0.0 mm
11:50 AM 36.9°F2.7°C 28.4°F-2.0°C 71% 7.0 mph NW11.3 kmh NW 13.2 mph21.2 kmh 29.59 in1002.0 mb 0.00 in0.0 mm 0.00 in0.0 mm 0.00 in0.0 mm
11:55 AM 35.4°F1.9°C 26.6°F-3.0°C 71% 7.4 mph NNW11.9 kmh NNW 12.3 mph19.8 kmh 29.59 in1002.0 mb 0.00 in0.0 mm 0.00 in0.0 mm 0.00 in0.0 mm
12:00 PM 35.6°F2.0°C 28.4°F-2.0°C 72% 8.0 mph NNW12.9 kmh NNW 12.3 mph19.8 kmh 29.59 in1002.0 mb 0.00 in0.0 mm 0.00 in0.0 mm 0.00 in0.0 mm
12:05 PM 35.8°F2.1°C 28.4°F-2.0°C 72% 6.3 mph NW10.1 kmh NW 10.5 mph16.9 kmh 29.59 in1002.0 mb 0.00 in0.0 mm 0.00 in0.0 mm 0.00 in0.0 mm
12:10 PM 36.9°F2.7°C 28.4°F-2.0°C 71% 6.0 mph NW9.7 kmh NW 8.1 mph13.0 kmh 29.59 in1002.0 mb 0.00 in0.0 mm 0.00 in0.0 mm 0.00 in0.0 mm
12:15 PM 37.4°F3.0°C 30.2°F-1.0°C 71% 7.1 mph NW11.4 kmh NW 10.3 mph16.6 kmh 29.59 in1002.0 mb 0.00 in0.0 mm 0.00 in0.0 mm 0.00 in0.0 mm
12:20 PM 38.8°F3.8°C 30.2°F-1.0°C 70% 6.6 mph NW10.6 kmh NW 10.3 mph16.6 kmh 29.59 in1002.0 mb 0.00 in0.0 mm 0.00 in0.0 mm 0.00 in0.0 mm
12:25 PM 39.4°F4.1°C 30.2°F-1.0°C 69% 7.2 mph NW11.6 kmh NW 12.1 mph19.5 kmh 29.62 in1003.0 mb 0.00 in0.0 mm 0.00 in0.0 mm 0.00 in0.0 mm
12:30 PM 39.4°F4.1°C 30.2°F-1.0°C 69% 9.0 mph NW14.5 kmh NW 12.1 mph19.5 kmh 29.62 in1003.0 mb 0.00 in0.0 mm 0.00 in0.0 mm 0.00 in0.0 mm
12:35 PM 38.3°F3.5°C 30.2°F-1.0°C 69% 8.1 mph NW13.0 kmh NW 11.9 mph19.2 kmh 29.62 in1003.0 mb 0.00 in0.0 mm 0.00 in0.0 mm 0.00 in0.0 mm
12:40 PM 39.0°F3.9°C 30.2°F-1.0°C 69% 6.5 mph NW10.5 kmh NW 11.0 mph17.7 kmh 29.62 in1003.0 mb 0.00 in0.0 mm 0.00 in0.0 mm 0.00 in0.0 mm
12:45 PM 37.2°F2.9°C 28.4°F-2.0°C 69% 7.6 mph NW12.2 kmh NW 14.8 mph23.8 kmh 29.62 in1003.0 mb 0.00 in0.0 mm 0.00 in0.0 mm 0.00 in0.0 mm
12:50 PM 36.3°F2.4°C 28.4°F-2.0°C 70% 8.2 mph NW13.2 kmh NW 14.8 mph23.8 kmh 29.62 in1003.0 mb 0.00 in0.0 mm 0.00 in0.0 mm 0.00 in0.0 mm
12:55 PM 37.8°F3.2°C 30.2°F-1.0°C 71% 6.8 mph NW10.9 kmh NW 13.2 mph21.2 kmh 29.62 in1003.0 mb 0.00 in0.0 mm 0.00 in0.0 mm 0.00 in0.0 mm
01:00 PM 39.0°F3.9°C 30.2°F-1.0°C 71% 7.1 mph NW11.4 kmh NW 11.0 mph17.7 kmh 29.62 in1003.0 mb 0.00 in0.0 mm 0.00 in0.0 mm 0.00 in0.0 mm
01:05 PM 39.7°F4.3°C 30.2°F-1.0°C 70% 6.7 mph NW10.8 kmh NW 11.0 mph17.7 kmh 29.62 in1003.0 mb 0.00 in0.0 mm 0.00 in0.0 mm 0.00 in0.0 mm
01:10 PM 39.9°F4.4°C 30.2°F-1.0°C 70% 6.0 mph NW9.7 kmh NW 8.5 mph13.7 kmh 29.62 in1003.0 mb 0.00 in0.0 mm 0.00 in0.0 mm 0.00 in0.0 mm
01:15 PM 39.9°F4.4°C 30.2°F-1.0°C 70% 7.9 mph NW12.7 kmh NW 15.2 mph24.5 kmh 29.62 in1003.0 mb 0.00 in0.0 mm 0.00 in0.0 mm 0.00 in0.0 mm
01:20 PM 39.9°F4.4°C 30.2°F-1.0°C 69% 8.1 mph NW13.0 kmh NW 15.2 mph24.5 kmh 29.62 in1003.0 mb 0.00 in0.0 mm 0.00 in0.0 mm 0.00 in0.0 mm
01:25 PM 39.6°F4.2°C 30.2°F-1.0°C 69% 6.9 mph NW11.1 kmh NW 14.5 mph23.3 kmh 29.62 in1003.0 mb 0.00 in0.0 mm 0.00 in0.0 mm 0.00 in0.0 mm
01:30 PM 39.6°F4.2°C 30.2°F-1.0°C 69% 7.2 mph NW11.6 kmh NW 14.5 mph23.3 kmh 29.62 in1003.0 mb 0.00 in0.0 mm 0.00 in0.0 mm 0.00 in0.0 mm
01:35 PM 39.4°F4.1°C 30.2°F-1.0°C 68% 7.7 mph NW12.4 kmh NW 15.4 mph24.8 kmh 29.62 in1003.0 mb 0.00 in0.0 mm 0.00 in0.0 mm 0.00 in0.0 mm
01:40 PM 39.0°F3.9°C 30.2°F-1.0°C 68% 6.7 mph NW10.8 kmh NW 15.4 mph24.8 kmh 29.62 in1003.0 mb 0.00 in0.0 mm 0.00 in0.0 mm 0.00 in0.0 mm
01:45 PM 38.8°F3.8°C 30.2°F-1.0°C 68% 6.3 mph NNW10.1 kmh NNW 10.3 mph16.6 kmh 29.62 in1003.0 mb 0.00 in0.0 mm 0.00 in0.0 mm 0.00 in0.0 mm
01:50 PM 38.7°F3.7°C 30.2°F-1.0°C 68% 6.9 mph NNW11.1 kmh NNW 10.3 mph16.6 kmh 29.62 in1003.0 mb 0.00 in0.0 mm 0.00 in0.0 mm 0.00 in0.0 mm
01:55 PM 38.7°F3.7°C 30.2°F-1.0°C 68% 7.9 mph NW12.7 kmh NW 10.5 mph16.9 kmh 29.65 in1004.1 mb 0.00 in0.0 mm 0.00 in0.0 mm 0.00 in0.0 mm
02:00 PM 38.7°F3.7°C 28.4°F-2.0°C 67% 8.6 mph NW13.8 kmh NW 12.1 mph19.5 kmh 29.65 in1004.1 mb 0.00 in0.0 mm 0.00 in0.0 mm 0.00 in0.0 mm
02:05 PM 38.5°F3.6°C 28.4°F-2.0°C 67% 7.4 mph NW11.9 kmh NW 12.1 mph19.5 kmh 29.65 in1004.1 mb 0.00 in0.0 mm 0.00 in0.0 mm 0.00 in0.0 mm
02:10 PM 38.5°F3.6°C 28.4°F-2.0°C 66% 6.7 mph NW10.8 kmh NW 10.7 mph17.2 kmh 29.65 in1004.1 mb 0.00 in0.0 mm 0.00 in0.0 mm 0.00 in0.0 mm
02:15 PM 38.5°F3.6°C 28.4°F-2.0°C 66% 6.4 mph NW10.3 kmh NW 8.5 mph13.7 kmh 29.65 in1004.1 mb 0.00 in0.0 mm 0.00 in0.0 mm 0.00 in0.0 mm
02:20 PM 38.5°F3.6°C 28.4°F-2.0°C 66% 6.0 mph NW9.7 kmh NW 8.5 mph13.7 kmh 29.65 in1004.1 mb 0.00 in0.0 mm 0.00 in0.0 mm 0.00 in0.0 mm
02:25 PM 38.5°F3.6°C 28.4°F-2.0°C 66% 6.1 mph NW9.8 kmh NW 10.1 mph16.3 kmh 29.65 in1004.1 mb 0.00 in0.0 mm 0.00 in0.0 mm 0.00 in0.0 mm
02:30 PM 38.5°F3.6°C 28.4°F-2.0°C 66% 6.3 mph NW10.1 kmh NW 10.5 mph16.9 kmh 29.65 in1004.1 mb 0.00 in0.0 mm 0.00 in0.0 mm 0.00 in0.0 mm
02:35 PM 38.3°F3.5°C 28.4°F-2.0°C 66% 6.5 mph NNW10.5 kmh NNW 10.5 mph16.9 kmh 29.65 in1004.1 mb 0.00 in0.0 mm 0.00 in0.0 mm 0.00 in0.0 mm
02:40 PM 37.9°F3.3°C 28.4°F-2.0°C 66% 7.1 mph NNW11.4 kmh NNW 10.5 mph16.9 kmh 29.68 in1005.1 mb 0.00 in0.0 mm 0.00 in0.0 mm 0.00 in0.0 mm
02:45 PM 37.8°F3.2°C 28.4°F-2.0°C 67% 6.7 mph NW10.8 kmh NW 10.7 mph17.2 kmh 29.68 in1005.1 mb 0.00 in0.0 mm 0.00 in0.0 mm 0.00 in0.0 mm
02:50 PM 37.6°F3.1°C 28.4°F-2.0°C 67% 6.8 mph NNW10.9 kmh NNW 12.5 mph20.1 kmh 29.68 in1005.1 mb 0.00 in0.0 mm 0.00 in0.0 mm 0.00 in0.0 mm
02:55 PM 37.4°F3.0°C 28.4°F-2.0°C 67% 6.9 mph NNW11.1 kmh NNW 12.5 mph20.1 kmh 29.68 in1005.1 mb 0.00 in0.0 mm 0.00 in0.0 mm 0.00 in0.0 mm
03:00 PM 37.0°F2.8°C 28.4°F-2.0°C 67% 5.4 mph NW8.7 kmh NW 7.8 mph12.6 kmh 29.68 in1005.1 mb 0.00 in0.0 mm 0.00 in0.0 mm 0.00 in0.0 mm
03:05 PM 37.0°F2.8°C 28.4°F-2.0°C 67% 4.8 mph NW7.7 kmh NW 7.4 mph11.9 kmh 29.68 in1005.1 mb 0.00 in0.0 mm 0.00 in0.0 mm 0.00 in0.0 mm
03:10 PM 36.9°F2.7°C 28.4°F-2.0°C 68% 5.1 mph NW8.2 kmh NW 7.6 mph12.2 kmh 29.68 in1005.1 mb 0.00 in0.0 mm 0.00 in0.0 mm 0.00 in0.0 mm
03:15 PM 36.9°F2.7°C 26.6°F-3.0°C 67% 5.2 mph NW8.4 kmh NW 7.6 mph12.2 kmh 29.68 in1005.1 mb 0.00 in0.0 mm 0.00 in0.0 mm 0.00 in0.0 mm
03:20 PM 37.0°F2.8°C 28.4°F-2.0°C 67% 6.3 mph NW10.1 kmh NW 9.8 mph15.8 kmh 29.68 in1005.1 mb 0.00 in0.0 mm 0.00 in0.0 mm 0.00 in0.0 mm
03:25 PM 36.7°F2.6°C 26.6°F-3.0°C 67% 6.7 mph NNW10.8 kmh NNW 9.8 mph15.8 kmh 29.71 in1006.1 mb 0.00 in0.0 mm 0.00 in0.0 mm 0.00 in0.0 mm
03:30 PM 36.7°F2.6°C 26.6°F-3.0°C 67% 6.3 mph NW10.1 kmh NW 11.2 mph18.0 kmh 29.71 in1006.1 mb 0.00 in0.0 mm 0.00 in0.0 mm 0.00 in0.0 mm
03:35 PM 36.5°F2.5°C 26.6°F-3.0°C 67% 6.5 mph NW10.5 kmh NW 11.2 mph18.0 kmh 29.71 in1006.1 mb 0.00 in0.0 mm 0.00 in0.0 mm 0.00 in0.0 mm
03:40 PM 36.5°F2.5°C 26.6°F-3.0°C 67% 5.9 mph NW9.5 kmh NW 10.7 mph17.2 kmh 29.71 in1006.1 mb 0.00 in0.0 mm 0.00 in0.0 mm 0.00 in0.0 mm
03:45 PM 36.5°F2.5°C 26.6°F-3.0°C 67% 5.6 mph NW9.0 kmh NW 10.7 mph17.2 kmh 29.71 in1006.1 mb 0.00 in0.0 mm 0.00 in0.0 mm 0.00 in0.0 mm
03:50 PM 36.3°F2.4°C 26.6°F-3.0°C 66% 6.5 mph NW10.5 kmh NW 13.6 mph21.9 kmh 29.71 in1006.1 mb 0.00 in0.0 mm 0.00 in0.0 mm 0.00 in0.0 mm
03:55 PM 36.1°F2.3°C 26.6°F-3.0°C 66% 6.5 mph NW10.5 kmh NW 13.6 mph21.9 kmh 29.71 in1006.1 mb 0.00 in0.0 mm 0.00 in0.0 mm 0.00 in0.0 mm
04:00 PM 35.6°F2.0°C 26.6°F-3.0°C 67% 4.5 mph NW7.2 kmh NW 7.4 mph11.9 kmh 29.71 in1006.1 mb 0.00 in0.0 mm 0.00 in0.0 mm 0.00 in0.0 mm
04:05 PM 35.6°F2.0°C 26.6°F-3.0°C 67% 5.6 mph NW9.0 kmh NW 12.8 mph20.6 kmh 29.71 in1006.1 mb 0.00 in0.0 mm 0.00 in0.0 mm 0.00 in0.0 mm
04:10 PM 35.6°F2.0°C 26.6°F-3.0°C 67% 5.8 mph NW9.3 kmh NW 12.8 mph20.6 kmh 29.71 in1006.1 mb 0.00 in0.0 mm 0.00 in0.0 mm 0.00 in0.0 mm
04:15 PM 35.6°F2.0°C 26.6°F-3.0°C 66% 6.2 mph NW10.0 kmh NW 10.1 mph16.3 kmh 29.71 in1006.1 mb 0.00 in0.0 mm 0.00 in0.0 mm 0.00 in0.0 mm
04:20 PM 36.0°F2.2°C 26.6°F-3.0°C 66% 7.0 mph NW11.3 kmh NW 10.1 mph16.3 kmh 29.71 in1006.1 mb 0.00 in0.0 mm 0.00 in0.0 mm 0.00 in0.0 mm
04:25 PM 35.8°F2.1°C 26.6°F-3.0°C 66% 6.0 mph NW9.7 kmh NW 7.6 mph12.2 kmh 29.71 in1006.1 mb 0.00 in0.0 mm 0.00 in0.0 mm 0.00 in0.0 mm
04:30 PM 35.6°F2.0°C 26.6°F-3.0°C 66% 5.3 mph NW8.5 kmh NW 10.3 mph16.6 kmh 29.71 in1006.1 mb 0.00 in0.0 mm 0.00 in0.0 mm 0.00 in0.0 mm
04:35 PM 35.6°F2.0°C 26.6°F-3.0°C 66% 5.1 mph NNW8.2 kmh NNW 10.3 mph16.6 kmh 29.71 in1006.1 mb 0.00 in0.0 mm 0.00 in0.0 mm 0.00 in0.0 mm
04:40 PM 35.4°F1.9°C 24.8°F-4.0°C 66% 5.3 mph NNW8.5 kmh NNW 9.2 mph14.8 kmh 29.74 in1007.1 mb 0.00 in0.0 mm 0.00 in0.0 mm 0.00 in0.0 mm
04:45 PM 35.2°F1.8°C 24.8°F-4.0°C 66% 6.5 mph NNW10.5 kmh NNW 12.1 mph19.5 kmh 29.74 in1007.1 mb 0.00 in0.0 mm 0.00 in0.0 mm 0.00 in0.0 mm
04:50 PM 35.4°F1.9°C 24.8°F-4.0°C 66% 6.3 mph NNW10.1 kmh NNW 12.1 mph19.5 kmh 29.74 in1007.1 mb 0.00 in0.0 mm 0.00 in0.0 mm 0.00 in0.0 mm
04:55 PM 35.6°F2.0°C 26.6°F-3.0°C 66% 5.9 mph NW9.5 kmh NW 9.6 mph15.4 kmh 29.74 in1007.1 mb 0.00 in0.0 mm 0.00 in0.0 mm 0.00 in0.0 mm
05:00 PM 35.4°F1.9°C 24.8°F-4.0°C 66% 7.2 mph NW11.6 kmh NW 10.7 mph17.2 kmh 29.74 in1007.1 mb 0.00 in0.0 mm 0.00 in0.0 mm 0.00 in0.0 mm
05:05 PM 35.4°F1.9°C 24.8°F-4.0°C 66% 6.4 mph NW10.3 kmh NW 10.7 mph17.2 kmh 29.74 in1007.1 mb 0.00 in0.0 mm 0.00 in0.0 mm 0.00 in0.0 mm
05:10 PM 35.2°F1.8°C 24.8°F-4.0°C 66% 6.2 mph N10.0 kmh N 12.1 mph19.5 kmh 29.74 in1007.1 mb 0.00 in0.0 mm 0.00 in0.0 mm 0.00 in0.0 mm
05:15 PM 35.2°F1.8°C 24.8°F-4.0°C 66% 6.6 mph N10.6 kmh N 12.1 mph19.5 kmh 29.74 in1007.1 mb 0.00 in0.0 mm 0.00 in0.0 mm 0.00 in0.0 mm
05:20 PM 35.1°F1.7°C 24.8°F-4.0°C 66% 5.6 mph NW9.0 kmh NW 8.1 mph13.0 kmh 29.74 in1007.1 mb 0.00 in0.0 mm 0.00 in0.0 mm 0.00 in0.0 mm
05:25 PM 35.1°F1.7°C 24.8°F-4.0°C 66% 5.5 mph NW8.9 kmh NW 8.1 mph13.0 kmh 29.74 in1007.1 mb 0.00 in0.0 mm 0.00 in0.0 mm 0.00 in0.0 mm
05:30 PM 34.9°F1.6°C 24.8°F-4.0°C 66% 6.1 mph NW9.8 kmh NW 8.5 mph13.7 kmh 29.74 in1007.1 mb 0.00 in0.0 mm 0.00 in0.0 mm 0.00 in0.0 mm
05:35 PM 34.9°F1.6°C 24.8°F-4.0°C 67% 5.5 mph NW8.9 kmh NW 8.5 mph13.7 kmh 29.74 in1007.1 mb 0.00 in0.0 mm 0.00 in0.0 mm 0.00 in0.0 mm
05:40 PM 34.7°F1.5°C 24.8°F-4.0°C 67% 5.6 mph NNW9.0 kmh NNW 8.7 mph14.0 kmh 29.74 in1007.1 mb 0.00 in0.0 mm 0.00 in0.0 mm 0.00 in0.0 mm
05:45 PM 34.5°F1.4°C 24.8°F-4.0°C 67% 6.2 mph NNW10.0 kmh NNW 8.7 mph14.0 kmh 29.74 in1007.1 mb 0.00 in0.0 mm 0.00 in0.0 mm 0.00 in0.0 mm
05:50 PM 34.5°F1.4°C 24.8°F-4.0°C 67% 5.9 mph NW9.5 kmh NW 8.1 mph13.0 kmh 29.74 in1007.1 mb 0.00 in0.0 mm 0.00 in0.0 mm 0.00 in0.0 mm
05:55 PM 34.3°F1.3°C 24.8°F-4.0°C 68% 6.1 mph NW9.8 kmh NW 10.1 mph16.3 kmh 29.74 in1007.1 mb 0.00 in0.0 mm 0.00 in0.0 mm 0.00 in0.0 mm
06:00 PM 34.2°F1.2°C 24.8°F-4.0°C 68% 5.4 mph NW8.7 kmh NW 10.1 mph16.3 kmh 29.74 in1007.1 mb 0.00 in0.0 mm 0.00 in0.0 mm 0.00 in0.0 mm
06:05 PM 33.8°F1.0°C 24.8°F-4.0°C 69% 3.9 mph WNW6.3 kmh WNW 6.5 mph10.5 kmh 29.74 in1007.1 mb 0.00 in0.0 mm 0.00 in0.0 mm 0.00 in0.0 mm
06:10 PM 33.8°F1.0°C 24.8°F-4.0°C 69% 2.8 mph W4.5 kmh W 6.5 mph10.5 kmh 29.74 in1007.1 mb 0.00 in0.0 mm 0.00 in0.0 mm 0.00 in0.0 mm
06:15 PM 33.8°F1.0°C 24.8°F-4.0°C 69% 1.8 mph WNW2.9 kmh WNW 4.7 mph7.6 kmh 29.74 in1007.1 mb 0.00 in0.0 mm 0.00 in0.0 mm 0.00 in0.0 mm
06:20 PM 33.4°F0.8°C 24.8°F-4.0°C 70% 2.0 mph NNW3.2 kmh NNW 5.6 mph9.0 kmh 29.74 in1007.1 mb 0.00 in0.0 mm 0.00 in0.0 mm 0.00 in0.0 mm
06:25 PM 33.8°F1.0°C 24.8°F-4.0°C 70% 3.5 mph NNW5.6 kmh NNW 6.5 mph10.5 kmh 29.74 in1007.1 mb 0.00 in0.0 mm 0.00 in0.0 mm 0.00 in0.0 mm
06:30 PM 34.0°F1.1°C 24.8°F-4.0°C 70% 3.9 mph NNW6.3 kmh NNW 6.5 mph10.5 kmh 29.74 in1007.1 mb 0.00 in0.0 mm 0.00 in0.0 mm 0.00 in0.0 mm
06:35 PM 34.0°F1.1°C 24.8°F-4.0°C 70% 4.7 mph N7.6 kmh N 10.3 mph16.6 kmh 29.74 in1007.1 mb 0.00 in0.0 mm 0.00 in0.0 mm 0.00 in0.0 mm
06:40 PM 34.0°F1.1°C 24.8°F-4.0°C 70% 4.9 mph N7.9 kmh N 10.3 mph16.6 kmh 29.77 in1008.1 mb 0.00 in0.0 mm 0.00 in0.0 mm 0.00 in0.0 mm
06:45 PM 33.8°F1.0°C 26.6°F-3.0°C 71% 3.6 mph NNW5.8 kmh NNW 6.3 mph10.1 kmh 29.77 in1008.1 mb 0.00 in0.0 mm 0.00 in0.0 mm 0.00 in0.0 mm
06:50 PM 34.2°F1.2°C 26.6°F-3.0°C 71% 3.1 mph NW5.0 kmh NW 4.3 mph6.9 kmh 29.77 in1008.1 mb 0.00 in0.0 mm 0.00 in0.0 mm 0.00 in0.0 mm
06:55 PM 33.8°F1.0°C 24.8°F-4.0°C 70% 2.3 mph NW3.7 kmh NW 4.0 mph6.4 kmh 29.77 in1008.1 mb 0.00 in0.0 mm 0.00 in0.0 mm 0.00 in0.0 mm
07:00 PM 34.2°F1.2°C 26.6°F-3.0°C 70% 2.4 mph NNW3.9 kmh NNW 5.8 mph9.3 kmh 29.77 in1008.1 mb 0.00 in0.0 mm 0.00 in0.0 mm 0.00 in0.0 mm
07:05 PM 34.2°F1.2°C 26.6°F-3.0°C 70% 3.6 mph NNW5.8 kmh NNW 5.8 mph9.3 kmh 29.77 in1008.1 mb 0.00 in0.0 mm 0.00 in0.0 mm 0.00 in0.0 mm
07:10 PM 34.0°F1.1°C 26.6°F-3.0°C 71% 2.9 mph NW4.7 kmh NW 5.8 mph9.3 kmh 29.77 in1008.1 mb 0.00 in0.0 mm 0.00 in0.0 mm 0.00 in0.0 mm
07:15 PM 33.8°F1.0°C 26.6°F-3.0°C 71% 1.9 mph W3.1 kmh W 5.8 mph9.3 kmh 29.77 in1008.1 mb 0.00 in0.0 mm 0.00 in0.0 mm 0.00 in0.0 mm
07:20 PM 33.6°F0.9°C 26.6°F-3.0°C 71% 1.1 mph WSW1.8 kmh WSW 3.4 mph5.5 kmh 29.77 in1008.1 mb 0.00 in0.0 mm 0.00 in0.0 mm 0.00 in0.0 mm
07:25 PM 33.3°F0.7°C 24.8°F-4.0°C 71% 0.8 mph S1.3 kmh S 2.2 mph3.5 kmh 29.77 in1008.1 mb 0.00 in0.0 mm 0.00 in0.0 mm 0.00 in0.0 mm
07:30 PM 32.9°F0.5°C 24.8°F-4.0°C 71% 0.7 mph SSE1.1 kmh SSE 2.0 mph3.2 kmh 29.77 in1008.1 mb 0.00 in0.0 mm 0.00 in0.0 mm 0.00 in0.0 mm
07:35 PM 32.7°F0.4°C 24.8°F-4.0°C 72% 0.5 mph SSW0.8 kmh SSW 1.3 mph2.1 kmh 29.77 in1008.1 mb 0.00 in0.0 mm 0.00 in0.0 mm 0.00 in0.0 mm
07:40 PM 32.5°F0.3°C 24.8°F-4.0°C 72% 0.5 mph SW0.8 kmh SW 1.3 mph2.1 kmh 29.80 in1009.1 mb 0.00 in0.0 mm 0.00 in0.0 mm 0.00 in0.0 mm
07:45 PM 32.2°F0.1°C 24.8°F-4.0°C 72% 0.5 mph WSW0.8 kmh WSW 2.5 mph4.0 kmh 29.80 in1009.1 mb 0.00 in0.0 mm 0.00 in0.0 mm 0.00 in0.0 mm
07:50 PM 32.2°F0.1°C 24.8°F-4.0°C 72% 0.9 mph SW1.4 kmh SW 2.5 mph4.0 kmh 29.80 in1009.1 mb 0.00 in0.0 mm 0.00 in0.0 mm 0.00 in0.0 mm
07:55 PM 32.2°F0.1°C 24.8°F-4.0°C 72% 1.0 mph WSW1.6 kmh WSW 2.5 mph4.0 kmh 29.80 in1009.1 mb 0.00 in0.0 mm 0.00 in0.0 mm 0.00 in0.0 mm
08:00 PM 32.2°F0.1°C 24.8°F-4.0°C 73% 1.2 mph WSW1.9 kmh WSW 2.9 mph4.7 kmh 29.80 in1009.1 mb 0.00 in0.0 mm 0.00 in0.0 mm 0.00 in0.0 mm
08:05 PM 32.4°F0.2°C 24.8°F-4.0°C 73% 1.7 mph W2.7 kmh W 4.3 mph6.9 kmh 29.80 in1009.1 mb 0.00 in0.0 mm 0.00 in0.0 mm 0.00 in0.0 mm
08:10 PM 32.2°F0.1°C 24.8°F-4.0°C 73% 2.1 mph W3.4 kmh W 4.3 mph6.9 kmh 29.80 in1009.1 mb 0.00 in0.0 mm 0.00 in0.0 mm 0.00 in0.0 mm
08:15 PM 32.2°F0.1°C 24.8°F-4.0°C 73% 2.2 mph W3.5 kmh W 3.1 mph5.0 kmh 29.80 in1009.1 mb 0.00 in0.0 mm 0.00 in0.0 mm 0.00 in0.0 mm
08:20 PM 32.0°F0.0°C 23.0°F-5.0°C 73% 1.7 mph W2.7 kmh W 2.9 mph4.7 kmh 29.80 in1009.1 mb 0.00 in0.0 mm 0.00 in0.0 mm 0.00 in0.0 mm
08:25 PM 31.5°F-0.3°C 23.0°F-5.0°C 73% 1.1 mph W1.8 kmh W 2.2 mph3.5 kmh 29.80 in1009.1 mb 0.00 in0.0 mm 0.00 in0.0 mm 0.00 in0.0 mm
08:30 PM 31.3°F-0.4°C 23.0°F-5.0°C 73% 0.7 mph WNW1.1 kmh WNW 1.6 mph2.6 kmh 29.80 in1009.1 mb 0.00 in0.0 mm 0.00 in0.0 mm 0.00 in0.0 mm
08:35 PM 31.3°F-0.4°C 23.0°F-5.0°C 73% 0.6 mph NW1.0 kmh NW 1.6 mph2.6 kmh 29.80 in1009.1 mb 0.00 in0.0 mm 0.00 in0.0 mm 0.00 in0.0 mm
08:40 PM 31.1°F-0.5°C 21.2°F-6.0°C 73% 0.8 mph NNW1.3 kmh NNW 2.5 mph4.0 kmh 29.80 in1009.1 mb 0.00 in0.0 mm 0.00 in0.0 mm 0.00 in0.0 mm
08:45 PM 31.1°F-0.5°C 23.0°F-5.0°C 74% 0.9 mph N1.4 kmh N 2.5 mph4.0 kmh 29.80 in1009.1 mb 0.00 in0.0 mm 0.00 in0.0 mm 0.00 in0.0 mm
08:50 PM 30.9°F-0.6°C 23.0°F-5.0°C 74% 0.9 mph NNW1.4 kmh NNW 1.3 mph2.1 kmh 29.80 in1009.1 mb 0.00 in0.0 mm 0.00 in0.0 mm 0.00 in0.0 mm
08:55 PM 31.1°F-0.5°C 23.0°F-5.0°C 74% 0.6 mph NNW1.0 kmh NNW 1.1 mph1.8 kmh 29.80 in1009.1 mb 0.00 in0.0 mm 0.00 in0.0 mm 0.00 in0.0 mm
09:00 PM 31.5°F-0.3°C 23.0°F-5.0°C 74% 0.5 mph S0.8 kmh S 1.1 mph1.8 kmh 29.80 in1009.1 mb 0.00 in0.0 mm 0.00 in0.0 mm 0.00 in0.0 mm
09:05 PM 31.5°F-0.3°C 23.0°F-5.0°C 74% 0.3 mph S0.5 kmh S 1.1 mph1.8 kmh 29.80 in1009.1 mb 0.00 in0.0 mm 0.00 in0.0 mm 0.00 in0.0 mm
09:10 PM 31.3°F-0.4°C 23.0°F-5.0°C 75% 0.4 mph S0.6 kmh S 1.3 mph2.1 kmh 29.80 in1009.1 mb 0.00 in0.0 mm 0.00 in0.0 mm 0.00 in0.0 mm
09:15 PM 31.1°F-0.5°C 23.0°F-5.0°C 74% 0.3 mph S0.5 kmh S 1.3 mph2.1 kmh 29.80 in1009.1 mb 0.00 in0.0 mm 0.00 in0.0 mm 0.00 in0.0 mm
09:20 PM 30.9°F-0.6°C 23.0°F-5.0°C 74% 0.1 mph S0.2 kmh S 1.1 mph1.8 kmh 29.80 in1009.1 mb 0.00 in0.0 mm 0.00 in0.0 mm 0.00 in0.0 mm
09:25 PM 30.7°F-0.7°C 23.0°F-5.0°C 74% 0.2 mph SW0.3 kmh SW 1.3 mph2.1 kmh 29.80 in1009.1 mb 0.00 in0.0 mm 0.00 in0.0 mm 0.00 in0.0 mm
09:30 PM 30.9°F-0.6°C 23.0°F-5.0°C 74% 0.6 mph WSW1.0 kmh WSW 2.9 mph4.7 kmh 29.80 in1009.1 mb 0.00 in0.0 mm 0.00 in0.0 mm 0.00 in0.0 mm
09:35 PM 31.1°F-0.5°C 23.0°F-5.0°C 74% 1.5 mph W2.4 kmh W 2.9 mph4.7 kmh 29.80 in1009.1 mb 0.00 in0.0 mm 0.00 in0.0 mm 0.00 in0.0 mm
09:40 PM 30.7°F-0.7°C 23.0°F-5.0°C 74% 1.5 mph WNW2.4 kmh WNW 2.9 mph4.7 kmh 29.80 in1009.1 mb 0.00 in0.0 mm 0.00 in0.0 mm 0.00 in0.0 mm
09:45 PM 30.6°F-0.8°C 21.2°F-6.0°C 74% 0.9 mph NNW1.4 kmh NNW 2.5 mph4.0 kmh 29.80 in1009.1 mb 0.00 in0.0 mm 0.00 in0.0 mm 0.00 in0.0 mm
09:50 PM 30.6°F-0.8°C 23.0°F-5.0°C 75% 0.7 mph N1.1 kmh N 2.5 mph4.0 kmh 29.80 in1009.1 mb 0.00 in0.0 mm 0.00 in0.0 mm 0.00 in0.0 mm
09:55 PM 30.9°F-0.6°C 23.0°F-5.0°C 75% 0.2 mph N0.3 kmh N 1.3 mph2.1 kmh 29.80 in1009.1 mb 0.00 in0.0 mm 0.00 in0.0 mm 0.00 in0.0 mm
10:00 PM 30.9°F-0.6°C 23.0°F-5.0°C 75% 0.3 mph S0.5 kmh S 1.6 mph2.6 kmh 29.80 in1009.1 mb 0.00 in0.0 mm 0.00 in0.0 mm 0.00 in0.0 mm
10:05 PM 30.7°F-0.7°C 23.0°F-5.0°C 75% 1.0 mph S1.6 kmh S 2.9 mph4.7 kmh 29.80 in1009.1 mb 0.00 in0.0 mm 0.00 in0.0 mm 0.00 in0.0 mm
10:10 PM 30.6°F-0.8°C 23.0°F-5.0°C 75% 1.1 mph S1.8 kmh S 2.9 mph4.7 kmh 29.80 in1009.1 mb 0.00 in0.0 mm 0.00 in0.0 mm 0.00 in0.0 mm
10:15 PM 30.6°F-0.8°C 23.0°F-5.0°C 75% 0.9 mph S1.4 kmh S 2.9 mph4.7 kmh 29.80 in1009.1 mb 0.00 in0.0 mm 0.00 in0.0 mm 0.00 in0.0 mm
10:20 PM 30.6°F-0.8°C 21.2°F-6.0°C 74% 1.4 mph SSW2.3 kmh SSW 3.1 mph5.0 kmh 29.80 in1009.1 mb 0.00 in0.0 mm 0.00 in0.0 mm 0.00 in0.0 mm
10:25 PM 30.6°F-0.8°C 21.2°F-6.0°C 74% 2.3 mph SSW3.7 kmh SSW 4.0 mph6.4 kmh 29.80 in1009.1 mb 0.00 in0.0 mm 0.00 in0.0 mm 0.00 in0.0 mm
10:30 PM 30.4°F-0.9°C 21.2°F-6.0°C 74% 1.9 mph SW3.1 kmh SW 4.0 mph6.4 kmh 29.80 in1009.1 mb 0.00 in0.0 mm 0.00 in0.0 mm 0.00 in0.0 mm
10:35 PM 30.4°F-0.9°C 21.2°F-6.0°C 74% 0.9 mph WSW1.4 kmh WSW 2.5 mph4.0 kmh 29.80 in1009.1 mb 0.00 in0.0 mm 0.00 in0.0 mm 0.00 in0.0 mm
10:40 PM 30.0°F-1.1°C 21.2°F-6.0°C 74% 0.5 mph WSW0.8 kmh WSW 2.5 mph4.0 kmh 29.80 in1009.1 mb 0.00 in0.0 mm 0.00 in0.0 mm 0.00 in0.0 mm
10:45 PM 29.8°F-1.2°C 21.2°F-6.0°C 74% 0.2 mph WSW0.3 kmh WSW 1.3 mph2.1 kmh 29.80 in1009.1 mb 0.00 in0.0 mm 0.00 in0.0 mm 0.00 in0.0 mm
10:50 PM 29.7°F-1.3°C 21.2°F-6.0°C 74% Calm Calm -- 29.80 in1009.1 mb 0.00 in0.0 mm 0.00 in0.0 mm 0.00 in0.0 mm
10:55 PM 29.5°F-1.4°C 21.2°F-6.0°C 74% 0.2 mph NNW0.3 kmh NNW 1.1 mph1.8 kmh 29.80 in1009.1 mb 0.00 in0.0 mm 0.00 in0.0 mm 0.00 in0.0 mm
11:00 PM 29.3°F-1.5°C 21.2°F-6.0°C 74% 0.3 mph WNW0.5 kmh WNW 1.6 mph2.6 kmh 29.80 in1009.1 mb 0.00 in0.0 mm 0.00 in0.0 mm 0.00 in0.0 mm
11:05 PM 29.3°F-1.5°C 21.2°F-6.0°C 74% 0.2 mph W0.3 kmh W 1.6 mph2.6 kmh 29.80 in1009.1 mb 0.00 in0.0 mm 0.00 in0.0 mm 0.00 in0.0 mm
11:10 PM 29.1°F-1.6°C 21.2°F-6.0°C 74% Calm Calm -- 29.83 in1010.2 mb 0.00 in0.0 mm 0.00 in0.0 mm 0.00 in0.0 mm
11:15 PM 29.3°F-1.5°C 21.2°F-6.0°C 75% Calm Calm -- 29.83 in1010.2 mb 0.00 in0.0 mm 0.00 in0.0 mm 0.00 in0.0 mm
11:20 PM 29.1°F-1.6°C 21.2°F-6.0°C 75% 0.3 mph N0.5 kmh N 1.1 mph1.8 kmh 29.83 in1010.2 mb 0.00 in0.0 mm 0.00 in0.0 mm 0.00 in0.0 mm
11:25 PM 29.1°F-1.6°C 21.2°F-6.0°C 75% 0.9 mph N1.4 kmh N 2.0 mph3.2 kmh 29.83 in1010.2 mb 0.00 in0.0 mm 0.00 in0.0 mm 0.00 in0.0 mm
11:30 PM 29.1°F-1.6°C 21.2°F-6.0°C 75% 1.3 mph N2.1 kmh N 2.0 mph3.2 kmh 29.83 in1010.2 mb 0.00 in0.0 mm 0.00 in0.0 mm 0.00 in0.0 mm
11:35 PM 29.1°F-1.6°C 21.2°F-6.0°C 75% 1.2 mph NNW1.9 kmh NNW 2.0 mph3.2 kmh 29.83 in1010.2 mb 0.00 in0.0 mm 0.00 in0.0 mm 0.00 in0.0 mm
11:40 PM 29.1°F-1.6°C 21.2°F-6.0°C 75% 1.1 mph NNW1.8 kmh NNW 2.0 mph3.2 kmh 29.83 in1010.2 mb 0.00 in0.0 mm 0.00 in0.0 mm 0.00 in0.0 mm
11:45 PM 29.1°F-1.6°C 21.2°F-6.0°C 75% 0.5 mph N0.8 kmh N 2.0 mph3.2 kmh 29.83 in1010.2 mb 0.00 in0.0 mm 0.00 in0.0 mm 0.00 in0.0 mm
11:50 PM 29.3°F-1.5°C 21.2°F-6.0°C 75% 0.2 mph ENE0.3 kmh ENE 1.1 mph1.8 kmh 29.83 in1010.2 mb 0.00 in0.0 mm 0.00 in0.0 mm 0.00 in0.0 mm
11:55 PM 29.1°F-1.6°C 21.2°F-6.0°C 75% 0.1 mph E0.2 kmh E 0.9 mph1.4 kmh 29.83 in1010.2 mb 0.00 in0.0 mm 0.00 in0.0 mm 0.00 in0.0 mm